Time;durP1;ratioP1;P1;durP2;ratioP2;P2;SDS_P1;SDS_P2;PMS_P1;PMS_P2;Temp;Humidity;BMP_temperature;BMP_pressure;BME280_temperature;BME280_humidity;BME280_pressure;Samples;Min_cycle;Max_cycle;Signal;HPM_P1;HPM_P2
2022/04/26 03:37:25;;;;;;;15.65;9.75;;;;;;;1.77;100.00;101419.44;5108317;28;20036;-79
2022/04/26 03:39:50;;;;;;;21.05;10.63;;;;;;;1.76;100.00;101422.97;5106053;28;20030;-79
2022/04/26 03:42:16;;;;;;;16.35;9.73;;;;;;;1.75;100.00;101413.53;5084415;28;20533;-79
2022/04/26 03:44:44;;;;;;;19.77;10.73;;;;;;;1.81;100.00;101427.91;5103551;28;20047;-79
2022/04/26 03:47:10;;;;;;;20.20;9.98;;;;;;;1.74;100.00;101430.78;5085383;28;20036;-79
2022/04/26 03:49:36;;;;;;;14.70;10.32;;;;;;;1.66;100.00;101426.91;5124853;27;20039;-78
2022/04/26 03:52:02;;;;;;;16.02;9.70;;;;;;;1.68;100.00;101435.44;5086839;28;20036;-80
2022/04/26 03:54:28;;;;;;;18.48;10.30;;;;;;;1.69;100.00;101437.09;5084712;28;20794;-82
2022/04/26 03:56:54;;;;;;;19.23;9.90;;;;;;;1.70;100.00;101431.84;5083291;28;20035;-78
2022/04/26 03:59:19;;;;;;;15.65;10.85;;;;;;;1.66;100.00;101427.75;5102222;28;20400;-80
2022/04/26 04:01:46;;;;;;;15.30;9.55;;;;;;;1.66;100.00;101437.25;5074337;28;20035;-79
2022/04/26 04:04:11;;;;;;;14.88;10.10;;;;;;;1.64;100.00;101428.72;5096753;28;20218;-81
2022/04/26 04:06:37;;;;;;;17.52;11.23;;;;;;;1.71;100.00;101432.69;5092630;28;20522;-81
2022/04/26 04:09:03;;;;;;;20.08;11.52;;;;;;;1.78;100.00;101441.00;5108365;28;20105;-81
2022/04/26 04:11:29;;;;;;;15.07;10.65;;;;;;;1.89;100.00;101438.75;5088390;28;20039;-79
2022/04/26 04:13:55;;;;;;;19.52;11.55;;;;;;;2.03;100.00;101431.13;5088867;28;20032;-80
2022/04/26 04:16:21;;;;;;;16.27;10.38;;;;;;;2.07;100.00;101434.41;5090860;28;20111;-80
2022/04/26 04:21:31;;;;;;;16.23;10.63;;;;;;;2.17;100.00;101443.44;5117643;28;20032;-80
2022/04/26 04:23:56;;;;;;;15.35;9.88;;;;;;;2.22;100.00;101448.38;5110807;28;20114;-81
2022/04/26 04:26:22;;;;;;;19.48;11.15;;;;;;;2.25;100.00;101448.22;5094524;28;20114;-79
2022/04/26 04:28:48;;;;;;;17.50;10.30;;;;;;;2.24;100.00;101449.97;5110218;28;20529;-79
2022/04/26 04:31:15;;;;;;;14.38;10.13;;;;;;;2.29;100.00;101436.81;5110106;28;20063;-80
2022/04/26 04:33:41;;;;;;;16.30;9.98;;;;;;;2.33;100.00;101449.50;5110248;28;20077;-81
2022/04/26 04:36:06;;;;;;;15.85;10.50;;;;;;;2.34;100.00;101450.38;5095954;28;20069;-80
2022/04/26 04:38:32;;;;;;;15.02;10.75;;;;;;;2.27;100.00;101443.81;5091973;28;20051;-80
2022/04/26 04:40:58;;;;;;;18.00;10.73;;;;;;;2.39;100.00;101463.06;5107744;28;20055;-79
2022/04/26 04:43:24;;;;;;;16.10;10.85;;;;;;;2.42;100.00;101453.41;5090085;28;20116;-80
2022/04/26 04:45:49;;;;;;;15.93;10.95;;;;;;;2.53;100.00;101460.63;5107822;28;20043;-79
2022/04/26 04:48:15;;;;;;;17.75;10.60;;;;;;;2.62;100.00;101467.94;5107448;28;21713;-81
2022/04/26 04:50:41;;;;;;;16.83;10.75;;;;;;;2.73;100.00;101455.28;5092407;28;20058;-79
2022/04/26 04:53:06;;;;;;;23.60;11.15;;;;;;;2.97;100.00;101477.41;5092184;28;20031;-79
2022/04/26 04:55:32;;;;;;;14.85;10.73;;;;;;;3.11;100.00;101472.38;5077361;28;20019;-80
2022/04/26 04:57:58;;;;;;;17.80;10.65;;;;;;;3.11;100.00;101467.19;5077883;28;20478;-80
2022/04/26 05:00:24;;;;;;;15.65;10.05;;;;;;;3.25;100.00;101471.63;5109817;28;20084;-80
2022/04/26 05:02:49;;;;;;;17.80;10.70;;;;;;;3.31;100.00;101471.28;5104804;28;20031;-79
2022/04/26 05:05:15;;;;;;;15.90;10.15;;;;;;;3.41;100.00;101469.91;5108672;28;20535;-80
2022/04/26 05:07:42;;;;;;;15.90;9.65;;;;;;;3.65;100.00;101478.09;5095271;28;20019;-80
2022/04/26 05:10:08;;;;;;;13.82;10.02;;;;;;;3.60;100.00;101481.84;5095585;28;20389;-81
2022/04/26 05:12:34;;;;;;;17.00;9.82;;;;;;;3.69;100.00;101483.94;5109823;27;20036;-81
2022/04/26 05:15:01;;;;;;;13.55;9.52;;;;;;;3.80;100.00;101488.56;5091210;28;20023;-81
2022/04/26 05:17:27;;;;;;;19.25;9.88;;;;;;;3.98;100.00;101487.56;5092170;28;20063;-81
2022/04/26 05:19:53;;;;;;;15.27;9.35;;;;;;;4.11;100.00;101500.69;5112860;28;20032;-80
2022/04/26 05:22:19;;;;;;;13.32;9.13;;;;;;;4.27;100.00;101477.28;5092052;28;20066;-79
2022/04/26 05:24:56;;;;;;;17.40;9.65;;;;;;;4.42;100.00;101498.94;5110949;28;20500;-81
2022/04/26 05:27:23;;;;;;;14.23;9.52;;;;;;;4.53;100.00;101491.38;5072269;28;20066;-80
2022/04/26 05:29:50;;;;;;;15.40;9.93;;;;;;;4.64;100.00;101499.38;5108368;28;20069;-80
2022/04/26 05:32:23;;;;;;;12.55;9.40;;;;;;;4.76;100.00;101505.59;5092142;28;20049;-79
2022/04/26 05:34:56;;;;;;;17.20;9.38;;;;;;;4.82;100.00;101500.06;5089694;28;20035;-78
2022/04/26 05:37:21;;;;;;;;;;;;;;;4.96;100.00;101511.41;5093852;28;20039;-81
2022/04/26 05:39:47;;;;;;;11.32;8.82;;;;;;;5.00;99.74;101498.13;5096986;28;20035;-79
2022/04/26 05:42:13;;;;;;;16.90;8.45;;;;;;;5.20;100.00;101509.09;5094718;28;20943;-80
2022/04/26 05:44:38;;;;;;;13.63;8.38;;;;;;;5.51;97.19;101508.06;5097085;28;20477;-80
2022/04/26 05:47:07;;;;;;;15.27;8.40;;;;;;;5.63;95.68;101504.69;5093480;28;20104;-80
2022/04/26 05:49:34;;;;;;;10.43;8.02;;;;;;;5.77;93.93;101511.63;5111457;28;20485;-81
2022/04/26 05:52:01;;;;;;;12.68;8.20;;;;;;;5.78;95.09;101504.66;5095339;28;20766;-81
2022/04/26 05:54:26;;;;;;;11.30;7.85;;;;;;;6.09;93.84;101515.78;5107598;28;20050;-81
2022/04/26 05:56:55;;;;;;;9.45;7.82;;;;;;;6.31;90.77;101500.44;5095284;28;20084;-80
2022/04/26 05:59:21;;;;;;;10.35;7.78;;;;;;;6.77;89.32;101509.56;5099729;28;20054;-79
2022/04/26 06:01:47;;;;;;;11.93;6.97;;;;;;;7.06;86.95;101517.19;5112693;28;20029;-79
2022/04/26 06:04:13;;;;;;;11.88;7.50;;;;;;;7.17;86.48;101512.06;5111812;28;20034;-80
2022/04/26 06:06:39;;;;;;;14.15;7.03;;;;;;;7.45;87.91;101518.00;5109932;28;20032;-80
2022/04/26 06:09:05;;;;;;;12.90;6.85;;;;;;;7.56;86.42;101518.91;5082151;28;20107;-79
2022/04/26 06:11:32;;;;;;;11.68;7.00;;;;;;;7.56;86.70;101518.06;5111989;28;20054;-81
2022/04/26 06:13:58;;;;;;;10.27;7.72;;;;;;;7.55;85.79;101513.78;5091050;28;20059;-81
2022/04/26 06:16:24;;;;;;;11.40;7.03;;;;;;;7.27;87.39;101507.91;5108768;28;20062;-80
2022/04/26 06:18:49;;;;;;;11.52;7.20;;;;;;;7.19;89.17;101515.41;5110805;28;20556;-80
2022/04/26 06:21:15;;;;;;;12.02;7.88;;;;;;;7.17;88.67;101504.25;5110988;28;20111;-82
2022/04/26 06:23:41;;;;;;;11.70;7.60;;;;;;;7.13;89.73;101497.56;5110630;28;20047;-81
2022/04/26 06:26:07;;;;;;;12.73;7.32;;;;;;;7.14;89.43;101496.63;5094935;28;20056;-81
2022/04/26 06:28:33;;;;;;;14.00;7.82;;;;;;;7.22;90.28;101505.59;5124831;27;20683;-81
2022/04/26 06:31:00;;;;;;;11.98;7.13;;;;;;;7.19;90.13;101497.13;5093522;28;20110;-81
2022/04/26 06:33:25;;;;;;;11.73;7.35;;;;;;;7.38;90.80;101502.78;5084735;28;20040;-81
2022/04/26 06:35:51;;;;;;;16.63;6.90;;;;;;;7.73;89.65;101520.31;5095169;28;20034;-80
2022/04/26 06:38:17;;;;;;;13.68;7.43;;;;;;;7.92;88.75;101508.56;5123413;27;20493;-81
2022/04/26 06:40:43;;;;;;;13.40;7.85;;;;;;;8.26;87.77;101513.97;5107170;28;20032;-80
2022/04/26 06:43:11;;;;;;;10.02;6.65;;;;;;;8.19;88.06;101516.16;5092146;28;20054;-82
2022/04/26 06:45:37;;;;;;;12.93;7.13;;;;;;;8.42;87.59;101518.91;5110042;28;20039;-82
2022/04/26 06:48:11;;;;;;;14.45;7.38;;;;;;;8.54;85.20;101518.00;5109473;28;20039;-81
2022/04/26 06:50:37;;;;;;;10.50;7.10;;;;;;;8.84;84.43;101519.28;5102469;28;20607;-82
2022/04/26 06:53:04;;;;;;;11.18;7.30;;;;;;;9.10;85.20;101525.16;5091048;28;20070;-82
2022/04/26 06:55:30;;;;;;;10.73;6.75;;;;;;;9.22;83.16;101531.22;5091910;28;20514;-82
2022/04/26 06:57:56;;;;;;;13.88;6.43;;;;;;;9.37;81.76;101534.44;5094960;28;20481;-82
2022/04/26 07:00:22;;;;;;;9.10;7.05;;;;;;;9.51;80.87;101528.94;5092710;28;20046;-80
2022/04/26 07:02:48;;;;;;;11.45;6.85;;;;;;;9.52;82.22;101541.91;5108768;28;20027;-80
2022/04/26 07:05:15;;;;;;;11.95;6.65;;;;;;;9.51;81.52;101547.28;5109136;27;20100;-79
2022/04/26 07:07:41;;;;;;;11.05;6.47;;;;;;;9.77;81.12;101542.59;5097894;28;20553;-80
2022/04/26 07:10:07;;;;;;;9.57;6.70;;;;;;;10.00;79.97;101543.41;5095361;28;20031;-79
2022/04/26 07:12:33;;;;;;;12.27;6.03;;;;;;;10.12;79.09;101547.66;5112566;28;20220;-82
2022/04/26 07:14:59;;;;;;;11.02;6.07;;;;;;;10.21;78.15;101546.09;5107107;28;20031;-79
2022/04/26 07:17:25;;;;;;;9.98;6.32;;;;;;;10.38;77.53;101554.38;5111436;28;20118;-80
2022/04/26 07:19:51;;;;;;;8.68;5.82;;;;;;;10.46;78.72;101549.34;5109170;28;20091;-81
2022/04/26 07:22:17;;;;;;;8.60;6.10;;;;;;;10.37;77.59;101553.56;5109915;28;20042;-81
2022/04/26 07:24:43;;;;;;;9.95;6.22;;;;;;;10.57;76.89;101554.56;5094472;28;20126;-82
2022/04/26 07:27:11;;;;;;;14.63;6.75;;;;;;;10.60;78.08;101549.03;5110884;28;20035;-82
2022/04/26 07:29:41;;;;;;;8.63;5.80;;;;;;;10.56;78.91;101544.19;5079126;28;20092;-80
2022/04/26 07:32:10;;;;;;;14.27;6.18;;;;;;;10.53;76.52;101547.91;5095685;28;20036;-82
2022/04/26 07:34:36;;;;;;;14.55;6.10;;;;;;;10.36;76.22;101549.28;5094960;28;20043;-81
2022/04/26 07:37:02;;;;;;;9.95;5.57;;;;;;;10.56;76.60;101539.75;5102082;28;20364;-80
2022/04/26 07:39:30;;;;;;;13.95;6.00;;;;;;;10.56;75.78;101544.19;5093120;28;20032;-81
2022/04/26 07:41:56;;;;;;;9.07;6.25;;;;;;;10.62;76.84;101548.91;5092814;28;20552;-82
2022/04/26 07:44:22;;;;;;;15.95;6.47;;;;;;;10.81;76.75;101543.81;5092344;28;20039;-80
2022/04/26 07:46:49;;;;;;;10.32;5.60;;;;;;;11.02;75.75;101549.06;5091810;28;20088;-80
2022/04/26 07:49:16;;;;;;;9.55;5.97;;;;;;;11.25;75.94;101547.09;5091177;28;20126;-80
2022/04/26 07:51:42;;;;;;;9.80;5.88;;;;;;;11.30;75.29;101542.28;5113739;28;20069;-82
2022/04/26 07:54:11;;;;;;;10.20;6.53;;;;;;;11.07;75.75;101559.97;5100325;28;20050;-81
2022/04/26 07:56:37;;;;;;;9.27;5.82;;;;;;;11.11;75.48;101563.16;5076658;28;20035;-79
2022/04/26 07:59:04;;;;;;;11.95;6.43;;;;;;;11.26;75.76;101572.41;5130633;27;20039;-81
2022/04/26 08:01:30;;;;;;;10.32;6.10;;;;;;;11.38;74.61;101569.69;5111848;28;20071;-80
2022/04/26 08:03:57;;;;;;;11.40;6.47;;;;;;;11.69;73.89;101575.72;5114573;28;20112;-80
2022/04/26 08:06:23;;;;;;;8.70;6.05;;;;;;;11.79;73.32;101581.00;5110942;28;20512;-80
2022/04/26 08:08:48;;;;;;;11.60;6.60;;;;;;;11.83;72.73;101574.56;5099139;28;20042;-81
2022/04/26 08:11:15;;;;;;;8.98;6.60;;;;;;;12.05;74.65;101581.38;5094994;28;20039;-81
2022/04/26 08:13:41;;;;;;;10.43;6.45;;;;;;;12.08;75.08;101581.13;5097523;28;20035;-81
2022/04/26 08:16:08;;;;;;;10.27;5.85;;;;;;;12.20;71.22;101576.56;5093578;28;20024;-81
2022/04/26 08:18:34;;;;;;;9.43;5.85;;;;;;;12.01;71.19;101590.53;5094155;28;20075;-80
2022/04/26 08:21:00;;;;;;;12.23;6.60;;;;;;;11.94;71.51;101584.13;5092434;28;20497;-80
2022/04/26 08:23:26;;;;;;;10.80;6.05;;;;;;;11.94;72.74;101587.63;5108598;28;20036;-79
2022/04/26 08:28:36;;;;;;;9.93;7.03;;;;;;;11.93;70.67;101591.19;5096264;28;20047;-81
2022/04/26 08:31:04;;;;;;;10.65;5.93;;;;;;;12.18;71.12;101589.84;5096843;28;20039;-79
2022/04/26 08:33:30;;;;;;;7.53;5.68;;;;;;;12.29;69.37;101578.38;5110068;28;20035;-80
2022/04/26 08:35:56;;;;;;;9.18;6.10;;;;;;;12.54;70.12;101587.53;5094428;28;20501;-82
2022/04/26 08:38:22;;;;;;;12.10;6.15;;;;;;;12.74;68.10;101582.28;5111303;28;20043;-82
2022/04/26 08:40:48;;;;;;;9.95;6.15;;;;;;;12.99;66.68;101596.63;5094056;28;20054;-79
2022/04/26 08:43:14;;;;;;;8.02;6.03;;;;;;;12.73;64.85;101584.03;5098119;28;20469;-81
2022/04/26 08:45:40;;;;;;;7.25;5.63;;;;;;;12.81;65.02;101597.34;5109806;28;20114;-81
2022/04/26 08:51:00;;;;;;;8.10;5.78;;;;;;;12.96;63.19;101605.66;5107143;28;20028;-80
2022/04/26 08:53:27;;;;;;;7.75;5.40;;;;;;;13.03;63.76;101611.19;5111188;28;20505;-80
2022/04/26 08:55:55;;;;;;;8.45;4.82;;;;;;;12.82;62.49;101600.81;5093777;28;20027;-79
2022/04/26 08:58:22;;;;;;;10.07;5.40;;;;;;;12.83;61.97;101605.94;5113417;28;20750;-80
2022/04/26 09:01:08;;;;;;;9.13;5.65;;;;;;;13.12;59.89;101612.97;5092202;28;20032;-80
2022/04/26 09:03:38;;;;;;;10.70;4.97;;;;;;;13.21;60.02;101617.38;5107718;28;20035;-80
2022/04/26 09:06:11;;;;;;;11.30;5.20;;;;;;;13.38;59.37;101604.47;5114585;28;20085;-80
2022/04/26 09:08:37;;;;;;;5.68;4.53;;;;;;;13.55;59.86;101613.44;5092605;28;20032;-80
2022/04/26 09:11:04;;;;;;;11.75;4.90;;;;;;;13.26;57.50;101619.59;5112873;28;20423;-80
2022/04/26 09:13:40;;;;;;;7.32;4.60;;;;;;;13.40;56.41;101616.53;5088845;28;20030;-81
2022/04/26 09:16:15;;;;;;;7.15;5.20;;;;;;;13.66;56.81;101617.69;5108782;28;20031;-80
2022/04/26 09:18:53;;;;;;;6.35;4.28;;;;;;;13.71;57.80;101610.16;5115125;28;20028;-81
2022/04/26 09:21:19;;;;;;;7.55;5.45;;;;;;;13.99;58.41;101616.28;5111960;28;20459;-80
2022/04/26 09:23:47;;;;;;;7.90;5.28;;;;;;;14.01;57.81;101612.53;5094942;28;20080;-79
2022/04/26 09:26:15;;;;;;;8.00;4.80;;;;;;;14.24;54.22;101609.47;5112967;28;20106;-80
2022/04/26 09:28:48;;;;;;;5.55;4.50;;;;;;;13.97;55.71;101612.94;5094710;28;20027;-81
2022/04/26 09:31:24;;;;;;;7.95;5.10;;;;;;;13.57;55.67;101608.84;5110121;28;20042;-80
2022/04/26 09:33:52;;;;;;;9.13;4.90;;;;;;;13.81;56.06;101610.97;5103394;28;20086;-80
2022/04/26 09:36:20;;;;;;;5.80;4.90;;;;;;;13.99;54.97;101613.63;5090308;28;20043;-79
2022/04/26 09:38:57;;;;;;;5.22;4.30;;;;;;;14.15;56.14;101610.34;5108549;28;20031;-79
2022/04/26 09:41:25;;;;;;;9.63;4.82;;;;;;;14.28;53.50;101607.34;5109535;28;20097;-79
2022/04/26 09:44:07;;;;;;;6.80;3.85;;;;;;;14.47;51.27;101617.78;5104663;28;20090;-79
2022/04/26 09:46:47;;;;;;;10.57;5.00;;;;;;;14.56;53.74;101614.22;5098078;28;20028;-79
2022/04/26 09:49:17;;;;;;;5.65;4.82;;;;;;;14.78;52.98;101612.13;5115041;27;20123;-81
2022/04/26 09:51:44;;;;;;;5.80;4.53;;;;;;;14.99;51.79;101615.25;5095986;28;20065;-80
2022/04/26 09:54:10;;;;;;;7.95;4.80;;;;;;;15.03;50.55;101621.06;5093496;28;20032;-79
2022/04/26 09:56:38;;;;;;;6.57;4.80;;;;;;;15.12;50.83;101616.66;5079572;28;20397;-78
2022/04/26 09:59:04;;;;;;;7.25;4.50;;;;;;;15.13;49.83;101616.50;5112510;28;20055;-79
2022/04/26 10:01:35;;;;;;;8.50;4.72;;;;;;;15.21;51.06;101615.72;5111935;28;20039;-81
2022/04/26 10:04:06;;;;;;;8.40;4.63;;;;;;;15.32;52.45;101609.34;5107859;28;20028;-81
2022/04/26 10:06:37;;;;;;;7.38;4.68;;;;;;;15.30;48.43;101621.91;5094296;28;20028;-80
2022/04/26 10:09:04;;;;;;;7.10;4.80;;;;;;;15.37;47.96;101615.84;5092584;28;20043;-83
2022/04/26 10:11:30;;;;;;;5.88;4.22;;;;;;;15.46;49.31;101603.47;5111160;28;20051;-80
2022/04/26 10:13:57;;;;;;;5.90;4.30;;;;;;;15.52;50.58;101612.59;5110721;28;20026;-79
2022/04/26 10:16:24;;;;;;;4.70;4.10;;;;;;;16.02;49.92;101609.19;5080911;28;20055;-81
2022/04/26 10:18:50;;;;;;;6.10;3.97;;;;;;;16.15;50.22;101612.19;5094146;28;20207;-81
2022/04/26 10:21:22;;;;;;;6.07;4.43;;;;;;;16.50;47.96;101623.50;5108022;28;20062;-79
2022/04/26 10:23:50;;;;;;;4.33;3.90;;;;;;;16.59;48.01;101626.16;5109006;28;20031;-80
2022/04/26 10:26:26;;;;;;;10.60;4.30;;;;;;;16.53;47.12;101628.47;5108437;28;20044;-80
2022/04/26 10:28:58;;;;;;;4.90;4.40;;;;;;;16.20;45.99;101619.66;5106972;28;20028;-81
2022/04/26 10:31:38;;;;;;;8.55;4.25;;;;;;;16.41;46.29;101623.66;5089196;28;20054;-81
2022/04/26 10:34:16;;;;;;;5.32;4.47;;;;;;;16.64;46.10;101627.31;5077895;28;20032;-80
2022/04/26 10:36:42;;;;;;;6.72;4.85;;;;;;;16.32;44.31;101625.47;5107704;28;20020;-78
2022/04/26 10:39:08;;;;;;;6.43;4.82;;;;;;;16.16;44.67;101620.94;5103328;28;20047;-78
2022/04/26 10:41:38;;;;;;;6.93;5.15;;;;;;;15.55;45.35;101615.75;5108616;28;20481;-80
2022/04/26 10:44:13;;;;;;;9.90;4.68;;;;;;;15.54;48.89;101616.75;5073354;28;20080;-79
2022/04/26 10:47:09;;;;;;;6.75;3.85;;;;;;;15.43;47.13;101619.66;5090586;28;20038;-78
2022/04/26 10:49:43;;;;;;;5.55;4.35;;;;;;;15.30;47.98;101625.38;5097735;28;20036;-80
2022/04/26 10:52:10;;;;;;;5.10;4.10;;;;;;;14.96;47.56;101622.66;5092541;28;20031;-80
2022/04/26 10:54:45;;;;;;;8.85;4.10;;;;;;;14.78;48.88;101620.84;5106803;28;20044;-80
2022/04/26 10:57:14;;;;;;;8.15;3.83;;;;;;;15.02;47.53;101621.22;5094130;28;20048;-80
2022/04/26 10:59:41;;;;;;;4.82;4.00;;;;;;;15.31;48.73;101623.53;5102691;28;20066;-79
2022/04/26 11:02:12;;;;;;;4.97;3.80;;;;;;;16.23;45.99;101621.97;5105991;28;20586;-81
2022/04/26 11:04:38;;;;;;;9.27;3.97;;;;;;;16.70;43.60;101633.78;5071114;28;20107;-80
2022/04/26 11:07:14;;;;;;;4.70;3.47;;;;;;;17.26;45.04;101618.03;5087675;28;20032;-80
2022/04/26 11:09:49;;;;;;;7.82;3.83;;;;;;;17.20;46.97;101632.78;5090539;28;20027;-79
2022/04/26 11:12:23;;;;;;;6.53;4.03;;;;;;;17.51;43.03;101627.56;5086851;28;20048;-80
2022/04/26 11:14:51;;;;;;;5.03;3.83;;;;;;;17.35;43.32;101635.59;5096826;28;20035;-80
2022/04/26 11:17:18;;;;;;;12.20;4.05;;;;;;;17.10;42.91;101632.13;5102458;28;20040;-79
2022/04/26 11:19:51;;;;;;;6.85;4.45;;;;;;;16.15;43.56;101635.19;5087157;28;20569;-80
2022/04/26 11:22:18;;;;;;;4.60;4.13;;;;;;;16.36;44.09;101634.72;5106481;28;20032;-79
2022/04/26 11:30:30;;;;;;;6.40;4.20;;;;;;;15.86;45.19;101640.88;5123976;28;20085;-79
2022/04/26 11:32:57;;;;;;;4.75;3.63;;;;;;;15.68;44.52;101636.47;5096384;28;20032;-79
2022/04/26 11:35:23;;;;;;;6.07;4.10;;;;;;;15.37;44.12;101634.34;5094574;28;20039;-78
2022/04/26 11:37:53;;;;;;;4.47;3.50;;;;;;;15.31;45.46;101636.75;5109354;28;20485;-79
2022/04/26 11:40:21;;;;;;;10.00;4.85;;;;;;;16.03;44.27;101645.25;5110722;28;20144;-79
2022/04/26 11:42:47;;;;;;;6.95;4.60;;;;;;;16.57;41.09;101638.75;5097810;28;20590;-76
2022/04/26 11:45:13;;;;;;;10.38;4.10;;;;;;;17.00;42.08;101645.56;5077905;28;20039;-80
2022/04/26 11:47:50;;;;;;;5.95;4.00;;;;;;;17.52;39.75;101644.31;5113173;27;20492;-78
2022/04/26 11:50:20;;;;;;;6.07;3.67;;;;;;;17.90;39.16;101650.66;5105672;28;20023;-80
2022/04/26 11:52:47;;;;;;;6.25;3.92;;;;;;;18.21;40.28;101649.03;5108209;28;20038;-83
2022/04/26 11:55:34;;;;;;;6.13;4.35;;;;;;;17.24;39.97;101649.19;5135343;27;20047;-78
2022/04/26 11:58:09;;;;;;;5.88;4.20;;;;;;;16.47;42.47;101647.66;5131143;27;20024;-79
2022/04/26 12:00:48;;;;;;;9.63;4.53;;;;;;;16.25;42.32;101643.81;5134158;27;20031;-79
2022/04/26 12:03:14;;;;;;;6.88;4.80;;;;;;;16.46;42.71;101645.16;5120083;28;20095;-79
2022/04/26 12:05:40;;;;;;;5.22;3.50;;;;;;;16.40;42.31;101646.66;5112367;27;20055;-79
2022/04/26 12:08:11;;;;;;;4.78;3.80;;;;;;;15.79;44.14;101642.50;5110447;28;20431;-78
2022/04/26 12:10:36;;;;;;;5.32;3.85;;;;;;;15.61;46.29;101640.72;5080312;28;20104;-80
2022/04/26 12:13:05;;;;;;;5.88;4.25;;;;;;;15.46;44.04;101639.66;5096422;28;20027;-77
2022/04/26 12:15:34;;;;;;;6.55;3.65;;;;;;;15.50;46.87;101638.34;5109600;28;20282;-77
2022/04/26 12:18:08;;;;;;;6.50;3.97;;;;;;;15.42;45.43;101643.59;5113222;28;20070;-80
2022/04/26 12:20:55;;;;;;;7.90;4.07;;;;;;;15.48;46.15;101640.34;5090723;28;20047;-80
2022/04/26 12:23:22;;;;;;;9.80;4.35;;;;;;;15.82;43.54;101645.66;5093160;28;20147;-79
2022/04/26 12:26:08;;;;;;;4.93;3.75;;;;;;;16.64;42.82;101643.22;5113024;28;20030;-81
2022/04/26 12:28:51;;;;;;;7.28;4.60;;;;;;;17.38;41.20;101642.34;5109524;28;20028;-79
2022/04/26 12:31:26;;;;;;;5.18;4.68;;;;;;;17.25;40.15;101649.03;5084847;28;20036;-77
2022/04/26 12:34:12;;;;;;;7.60;4.28;;;;;;;16.92;40.28;101649.03;5092610;28;20716;-80
2022/04/26 12:36:59;;;;;;;5.65;4.70;;;;;;;16.53;41.15;101648.81;5109489;27;20027;-79
2022/04/26 12:39:45;;;;;;;6.13;3.90;;;;;;;16.69;41.67;101648.84;5100676;28;20557;-78
2022/04/26 12:42:27;;;;;;;8.18;3.72;;;;;;;16.54;43.37;101653.16;5090879;28;20038;-79
2022/04/26 12:44:58;;;;;;;9.23;4.90;;;;;;;16.73;40.26;101642.22;5088878;28;20046;-78
2022/04/26 12:50:31;;;;;;;7.90;3.78;;;;;;;17.48;38.93;101632.41;5106791;28;20398;-79
2022/04/26 12:53:07;;;;;;;5.43;3.92;;;;;;;17.96;38.23;101637.72;5087556;28;20094;-79
2022/04/26 12:55:41;;;;;;;5.85;3.72;;;;;;;17.76;39.36;101635.44;5075542;28;20047;-81
2022/04/26 12:58:15;;;;;;;4.50;4.07;;;;;;;18.09;36.89;101644.09;5104128;28;20111;-79
2022/04/26 13:00:46;;;;;;;6.00;3.72;;;;;;;17.53;37.05;101645.97;5079441;28;20027;-80
2022/04/26 13:03:14;;;;;;;4.00;3.60;;;;;;;17.00;37.74;101631.50;5107031;28;20043;-80
2022/04/26 13:05:50;;;;;;;3.90;3.20;;;;;;;17.26;39.63;101641.91;5106886;28;20031;-78
2022/04/26 13:08:18;;;;;;;5.13;3.75;;;;;;;17.66;37.88;101635.63;5091575;28;20051;-80
2022/04/26 13:10:49;;;;;;;5.18;4.10;;;;;;;18.41;37.28;101628.97;5084044;28;20015;-81
2022/04/26 13:13:16;;;;;;;5.60;4.35;;;;;;;18.08;37.03;101633.66;5105707;28;20050;-81
2022/04/26 13:15:42;;;;;;;7.38;3.70;;;;;;;18.22;37.51;101632.91;5108942;28;20471;-80
2022/04/26 13:18:08;;;;;;;6.60;3.42;;;;;;;18.33;38.70;101626.38;5107227;27;20116;-80
2022/04/26 13:20:34;;;;;;;7.35;3.70;;;;;;;18.80;36.96;101646.66;5084752;28;20046;-79
2022/04/26 13:23:01;;;;;;;6.07;3.70;;;;;;;19.36;38.42;101646.28;5094375;28;20031;-80
2022/04/26 13:25:27;;;;;;;7.53;4.45;;;;;;;18.48;35.05;101642.38;5088119;28;20039;-80
2022/04/26 13:27:53;;;;;;;8.23;3.95;;;;;;;18.49;36.42;101646.69;5100618;28;20024;-79
2022/04/26 13:30:19;;;;;;;6.38;4.00;;;;;;;19.00;34.69;101640.81;5093038;28;20038;-79
2022/04/26 13:32:45;;;;;;;6.05;3.65;;;;;;;19.20;36.10;101643.81;5114042;28;20559;-78
2022/04/26 13:35:11;;;;;;;6.47;3.70;;;;;;;19.18;34.54;101640.50;5092326;28;20034;-79
2022/04/26 13:37:39;;;;;;;6.97;3.83;;;;;;;19.71;32.93;101643.09;5087257;28;20031;-79
2022/04/26 13:40:05;;;;;;;5.68;3.33;;;;;;;19.97;34.68;101637.28;5105058;28;20292;-78
2022/04/26 13:42:31;;;;;;;6.18;3.75;;;;;;;19.84;32.88;101630.78;5089007;28;20036;-78
2022/04/26 13:44:58;;;;;;;6.35;4.00;;;;;;;20.41;32.92;101639.00;5107270;28;20023;-81
2022/04/26 13:47:24;;;;;;;5.85;3.70;;;;;;;20.65;32.45;101643.16;5099411;28;20690;-79
2022/04/26 13:49:52;;;;;;;6.97;3.60;;;;;;;21.83;29.74;101645.16;5077999;28;20062;-81
2022/04/26 13:52:20;;;;;;;8.63;3.53;;;;;;;22.44;30.45;101634.47;5099486;28;20031;-80
2022/04/26 13:54:46;;;;;;;5.10;2.90;;;;;;;22.95;30.11;101641.06;5103920;28;20027;-80
2022/04/26 13:57:12;;;;;;;6.10;3.20;;;;;;;22.44;28.38;101634.47;5090275;28;20023;-80
2022/04/26 13:59:38;;;;;;;4.65;2.90;;;;;;;22.60;29.42;101632.44;5079504;28;20110;-79
2022/04/26 14:02:05;;;;;;;3.28;2.60;;;;;;;22.40;29.46;101638.59;5089138;28;20039;-79
2022/04/26 14:04:31;;;;;;;4.95;3.15;;;;;;;22.22;29.05;101647.13;5109763;28;20493;-80
2022/04/26 14:06:57;;;;;;;5.50;3.03;;;;;;;22.02;30.34;101638.25;5104486;28;20028;-79
2022/04/26 14:09:23;;;;;;;5.22;2.85;;;;;;;22.48;31.07;101637.56;5089799;28;20036;-80
2022/04/26 14:11:49;;;;;;;6.90;3.05;;;;;;;22.22;30.52;101636.44;5107333;28;20035;-80
2022/04/26 14:22:32;;;;;;;3.70;3.25;;;;;;;21.56;29.91;101642.38;5108978;27;20425;-82
2022/04/26 14:25:08;;;;;;;4.63;3.75;;;;;;;20.97;30.29;101640.94;5109848;28;20032;-80
2022/04/26 14:27:38;;;;;;;4.50;3.05;;;;;;;21.29;32.79;101646.72;5121042;27;20031;-79
2022/04/26 14:30:06;;;;;;;4.00;3.40;;;;;;;21.45;30.76;101649.06;5092801;28;20035;-79
2022/04/26 14:32:32;;;;;;;4.13;3.50;;;;;;;21.21;32.23;101642.34;5091744;28;20036;-80
2022/04/26 14:34:58;;;;;;;5.20;2.92;;;;;;;21.44;30.98;101636.78;5109205;28;20031;-79
2022/04/26 14:37:24;;;;;;;5.53;3.47;;;;;;;20.69;32.95;101640.91;5102751;28;20034;-80
2022/04/26 14:39:50;;;;;;;4.55;3.38;;;;;;;21.06;33.54;101641.59;5108729;27;20063;-79
2022/04/26 14:42:17;;;;;;;5.97;3.53;;;;;;;20.89;31.55;101646.41;5100681;28;20378;-80
2022/04/26 14:44:43;;;;;;;8.48;3.92;;;;;;;20.92;32.34;101638.84;5085258;28;20047;-80
2022/04/26 14:47:09;;;;;;;3.55;2.95;;;;;;;21.72;31.55;101644.72;5083952;28;20077;-79
2022/04/26 14:49:35;;;;;;;7.22;3.83;;;;;;;20.71;30.28;101642.38;5087600;28;20493;-79
2022/04/26 14:52:01;;;;;;;3.60;3.22;;;;;;;21.17;31.89;101633.91;5092355;28;20075;-80
2022/04/26 14:54:28;;;;;;;3.65;3.10;;;;;;;20.26;31.81;101639.03;5072939;28;20032;-79
2022/04/26 14:56:54;;;;;;;5.75;2.90;;;;;;;20.51;32.03;101634.19;5092619;28;20035;-79
2022/04/26 14:59:22;;;;;;;3.97;3.25;;;;;;;20.83;32.52;101634.66;5070020;28;20035;-80
2022/04/26 15:01:49;;;;;;;6.18;3.60;;;;;;;21.39;31.38;101636.50;5107572;28;20035;-80
2022/04/26 15:04:19;;;;;;;5.18;3.78;;;;;;;21.10;30.92;101640.22;5091545;28;20062;-82
2022/04/26 15:06:45;;;;;;;4.43;3.33;;;;;;;21.55;31.79;101638.06;5088457;28;20049;-80
2022/04/26 15:17:25;;;;;;;5.35;3.47;;;;;;;21.13;32.32;101637.97;5106686;28;20170;-79
2022/04/26 15:19:51;;;;;;;6.30;4.13;;;;;;;20.89;31.25;101636.59;5092340;28;20146;-78
2022/04/26 15:22:19;;;;;;;5.47;3.45;;;;;;;21.23;33.04;101640.31;5092049;28;20177;-77
2022/04/26 15:24:46;;;;;;;5.68;3.55;;;;;;;20.98;32.21;101647.91;5101805;28;20594;-78
2022/04/26 15:27:13;;;;;;;3.67;3.03;;;;;;;21.26;32.03;101641.75;5084956;28;20130;-78
2022/04/26 15:29:38;;;;;;;3.78;3.10;;;;;;;20.50;32.89;101637.03;5079296;28;20042;-78
2022/04/26 15:32:04;;;;;;;4.70;3.38;;;;;;;19.59;33.96;101630.25;5111402;28;20023;-77
2022/04/26 15:34:30;;;;;;;7.25;3.33;;;;;;;18.87;34.53;101628.16;5111611;28;20045;-79
2022/04/26 15:36:56;;;;;;;4.72;3.17;;;;;;;19.61;32.88;101632.72;5091729;28;20020;-78